createdAt,value
2023-02-19T00:00:17.468Z,61.58
2023-02-19T00:02:45.874Z,61.67
2023-02-19T00:05:12.402Z,61.73
2023-02-19T00:07:39.397Z,61.93
2023-02-19T00:10:09.737Z,61.91
2023-02-19T00:12:36.647Z,61.90
2023-02-19T00:15:06.444Z,62.10
2023-02-19T00:17:35.732Z,61.90
2023-02-19T00:20:05.733Z,61.98
2023-02-19T00:22:36.381Z,62.01
2023-02-19T00:25:06.478Z,61.95
2023-02-19T00:27:35.144Z,61.96
2023-02-19T00:30:02.496Z,62.17
2023-02-19T00:32:32.697Z,62.13
2023-02-19T00:35:04.548Z,62.02
2023-02-19T00:37:34.768Z,62.09
2023-02-19T00:40:01.595Z,62.19
2023-02-19T00:42:31.949Z,62.28
2023-02-19T00:45:03.047Z,62.35
2023-02-19T00:47:31.852Z,62.52
2023-02-19T00:50:01.689Z,62.46
2023-02-19T00:52:28.483Z,62.45
2023-02-19T00:54:56.768Z,62.52
2023-02-19T00:57:26.123Z,62.41
2023-02-19T00:59:53.657Z,62.49
2023-02-19T01:02:20.390Z,62.54
2023-02-19T01:04:53.048Z,62.86
2023-02-19T01:07:24.077Z,62.77
2023-02-19T01:09:51.245Z,62.93
2023-02-19T01:12:18.944Z,62.74
2023-02-19T01:14:45.799Z,62.66
2023-02-19T01:17:15.382Z,62.75
2023-02-19T01:19:42.352Z,62.91
2023-02-19T01:22:08.831Z,62.95
2023-02-19T01:24:35.510Z,62.83
2023-02-19T01:27:02.242Z,63.02
2023-02-19T01:29:38.926Z,63.11
2023-02-19T01:32:08.789Z,63.13
2023-02-19T01:34:40.153Z,63.23
2023-02-19T01:37:11.236Z,63.25
2023-02-19T01:39:38.468Z,63.30
2023-02-19T01:42:14.822Z,63.44
2023-02-19T01:44:44.328Z,63.54
2023-02-19T01:47:11.274Z,63.61
2023-02-19T01:49:40.131Z,63.50
2023-02-19T01:52:12.452Z,63.66
2023-02-19T01:54:42.344Z,63.57
2023-02-19T01:57:12.921Z,63.54
2023-02-19T01:59:41.931Z,63.81
2023-02-19T02:02:11.027Z,63.83
2023-02-19T02:04:40.277Z,63.83
2023-02-19T02:07:43.982Z,63.82
2023-02-19T02:10:20.708Z,63.84
2023-02-19T02:12:56.360Z,63.90
2023-02-19T02:15:26.195Z,64.09
2023-02-19T02:17:58.842Z,64.27
2023-02-19T02:20:42.794Z,64.41
2023-02-19T02:23:40.132Z,64.39
2023-02-19T02:26:14.284Z,64.74
2023-02-19T02:29:00.124Z,64.92
2023-02-19T02:31:39.609Z,65.11
2023-02-19T02:34:11.674Z,65.02
2023-02-19T02:36:44.207Z,65.31
2023-02-19T02:39:14.649Z,65.28
2023-02-19T02:41:48.311Z,65.47
2023-02-19T02:44:16.272Z,65.51
2023-02-19T02:46:43.801Z,65.55
2023-02-19T02:49:17.847Z,65.77
2023-02-19T02:51:55.040Z,65.93
2023-02-19T02:55:04.494Z,66.07
2023-02-19T02:57:32.772Z,66.35
2023-02-19T02:59:59.639Z,66.37
2023-02-19T03:02:28.012Z,66.54
2023-02-19T03:05:26.991Z,66.73
2023-02-19T03:07:59.976Z,66.84
2023-02-19T03:10:43.712Z,67.05
2023-02-19T03:13:38.525Z,67.29
2023-02-19T03:16:35.901Z,67.44
2023-02-19T03:19:20.276Z,67.75
2023-02-19T03:22:10.760Z,68.03
2023-02-19T03:25:02.914Z,68.28
2023-02-19T03:27:30.158Z,68.54
2023-02-19T03:29:59.531Z,68.75
2023-02-19T03:32:32.881Z,68.92
2023-02-19T13:55:49.398Z,52.49
2023-02-19T13:58:56.068Z,52.18
2023-02-19T14:02:07.550Z,52.38
2023-02-19T14:04:56.530Z,52.61
2023-02-19T14:07:26.998Z,52.43
2023-02-19T14:10:01.242Z,52.53
2023-02-19T14:12:35.416Z,52.28
2023-02-19T14:15:27.084Z,52.29
2023-02-19T14:17:55.260Z,52.18
2023-02-19T14:20:45.688Z,52.08
2023-02-19T14:23:24.905Z,52.21
2023-02-19T14:25:57.783Z,52.41
2023-02-19T14:28:36.931Z,52.69
2023-02-19T14:31:17.610Z,52.56
2023-02-19T14:33:55.633Z,52.77
2023-02-19T14:36:40.029Z,52.76
2023-02-19T14:39:12.374Z,52.87
2023-02-19T14:41:41.249Z,52.81
2023-02-19T14:44:16.660Z,52.59
2023-02-19T14:47:13.910Z,52.83
2023-02-19T14:49:47.440Z,53.19
2023-02-19T14:52:24.160Z,53.34
2023-02-19T14:54:53.532Z,53.04
2023-02-19T14:57:26.680Z,53.31
2023-02-19T14:59:59.923Z,53.32
2023-02-19T15:02:32.903Z,53.50
2023-02-19T15:05:14.760Z,53.60
2023-02-19T15:07:42.894Z,53.61
2023-02-19T15:10:10.936Z,53.47
2023-02-19T15:12:51.812Z,53.60
2023-02-19T15:15:31.964Z,53.70
2023-02-19T15:17:59.103Z,53.93
2023-02-19T15:20:32.182Z,54.15
2023-02-19T15:23:06.639Z,54.29
2023-02-19T15:25:37.380Z,54.47
2023-02-19T15:28:29.198Z,54.42
2023-02-19T15:31:06.925Z,54.67
2023-02-19T15:33:35.160Z,54.77
2023-02-19T15:36:06.278Z,54.79
2023-02-19T15:38:33.381Z,54.83
2023-02-19T15:41:00.201Z,54.88
2023-02-19T15:43:35.555Z,54.92
2023-02-19T15:46:04.268Z,55.01
2023-02-19T15:48:45.728Z,55.03
2023-02-19T15:51:20.679Z,55.10
2023-02-19T15:53:50.987Z,55.39
2023-02-19T15:56:21.213Z,55.40
2023-02-19T15:58:54.478Z,55.40
2023-02-19T16:01:26.060Z,55.34
2023-02-19T16:03:53.601Z,55.43
2023-02-19T16:06:21.282Z,55.70
2023-02-19T16:09:05.269Z,55.64
2023-02-19T16:11:35.875Z,55.52
2023-02-19T16:14:30.518Z,55.57
2023-02-19T16:17:12.044Z,55.58
2023-02-19T16:19:52.354Z,55.84
2023-02-19T16:22:20.544Z,55.94
2023-02-19T16:25:00.053Z,55.83
2023-02-19T16:27:40.592Z,55.99
2023-02-19T16:30:16.523Z,56.04
2023-02-19T16:32:46.793Z,56.09
2023-02-19T16:35:46.375Z,56.16
2023-02-19T16:38:20.273Z,56.14
2023-02-19T16:40:53.606Z,56.01
2023-02-19T16:43:40.986Z,56.26
2023-02-19T16:46:11.479Z,56.39
2023-02-19T16:48:38.146Z,56.46
2023-02-19T16:51:13.993Z,56.43
2023-02-19T16:53:40.664Z,56.59
2023-02-19T16:56:17.953Z,56.57
2023-02-19T16:58:44.736Z,56.56
2023-02-19T17:01:11.540Z,56.55
2023-02-19T17:03:41.445Z,56.78
2023-02-19T17:06:08.261Z,56.96
2023-02-19T17:08:50.228Z,57.13
2023-02-19T17:11:20.574Z,57.00
2023-02-19T17:13:47.149Z,57.05
2023-02-19T17:16:20.217Z,57.17
2023-02-19T17:18:48.164Z,57.13
2023-02-19T17:21:20.506Z,57.13
2023-02-19T17:23:49.491Z,57.16
2023-02-19T17:26:18.558Z,57.25
2023-02-19T17:28:48.372Z,57.39
2023-02-19T17:31:15.318Z,57.39
2023-02-19T17:33:45.052Z,57.34
2023-02-19T17:36:16.920Z,57.47
2023-02-19T17:38:43.624Z,57.42
2023-02-19T17:41:11.244Z,57.50
2023-02-19T17:43:38.061Z,57.67
2023-02-19T17:46:04.963Z,57.81
2023-02-19T17:48:36.929Z,58.10
2023-02-19T17:51:10.434Z,58.18
2023-02-19T17:53:37.769Z,58.20
2023-02-19T17:56:06.988Z,58.35
2023-02-19T17:58:33.510Z,58.48
2023-02-19T18:01:01.214Z,58.49
2023-02-19T18:03:30.073Z,58.60
2023-02-19T18:05:58.120Z,58.71
2023-02-19T18:08:31.033Z,58.74
2023-02-19T18:11:00.424Z,59.02
2023-02-19T18:13:31.471Z,59.16
2023-02-19T18:15:59.553Z,59.28
2023-02-19T18:18:29.864Z,59.47
2023-02-19T18:20:56.756Z,59.41
2023-02-19T18:23:23.197Z,59.62
2023-02-19T18:25:49.732Z,59.65
2023-02-19T18:28:16.295Z,59.87
2023-02-19T18:30:43.072Z,59.54
2023-02-19T18:33:13.749Z,59.46
2023-02-19T18:35:40.396Z,59.57
2023-02-19T18:38:07.060Z,59.62
2023-02-19T18:40:35.796Z,59.65
2023-02-19T18:43:03.027Z,59.73
2023-02-19T18:45:36.495Z,59.68
2023-02-19T18:48:04.161Z,59.65
2023-02-19T18:50:32.240Z,59.70
2023-02-19T18:53:01.106Z,59.73
2023-02-19T18:55:28.286Z,59.85
2023-02-19T18:57:54.898Z,59.88
2023-02-19T19:00:24.990Z,59.85
2023-02-19T19:02:57.456Z,59.88
2023-02-19T19:05:26.337Z,59.76
2023-02-19T19:07:59.845Z,59.98
2023-02-19T19:10:26.339Z,59.73
2023-02-19T19:12:53.790Z,59.86
2023-02-19T19:15:20.372Z,60.08
2023-02-19T19:17:48.731Z,59.92
2023-02-19T19:20:19.571Z,60.15
2023-02-19T19:22:49.139Z,59.88
2023-02-19T19:25:15.992Z,60.09
2023-02-19T19:27:42.515Z,60.03
2023-02-19T19:30:09.614Z,60.24
2023-02-19T19:32:36.634Z,60.12
2023-02-19T19:35:25.547Z,60.11
2023-02-19T19:37:55.387Z,60.33
2023-02-19T19:40:23.419Z,60.22
2023-02-19T19:42:55.010Z,60.41
2023-02-19T19:45:21.807Z,60.52
2023-02-19T19:47:52.340Z,60.61
2023-02-19T19:50:19.455Z,60.51
2023-02-19T19:52:47.705Z,60.66
2023-02-19T19:55:15.395Z,60.82
2023-02-19T19:57:42.986Z,61.07
2023-02-19T20:00:17.090Z,60.86
2023-02-19T20:02:45.832Z,60.70
2023-02-19T20:05:19.544Z,60.66
2023-02-19T20:07:49.049Z,60.45
2023-02-19T20:10:16.444Z,60.59
2023-02-19T20:12:43.844Z,60.26
2023-02-19T20:15:10.332Z,60.51
2023-02-19T20:17:38.105Z,60.37
2023-02-19T20:20:10.193Z,60.01
2023-02-19T20:22:40.628Z,60.29
2023-02-19T20:25:11.669Z,60.12
2023-02-19T20:27:40.485Z,60.11
2023-02-19T20:30:11.439Z,60.12
2023-02-19T20:32:39.788Z,60.22
2023-02-19T20:35:07.217Z,60.19
2023-02-19T20:37:33.864Z,60.34
2023-02-19T20:40:01.621Z,60.68
2023-02-19T20:42:31.042Z,60.47
2023-02-19T20:44:58.937Z,60.65
2023-02-19T20:47:27.551Z,60.63
2023-02-19T20:49:55.855Z,60.84
2023-02-19T20:52:26.181Z,60.88
2023-02-19T20:54:56.134Z,61.21
2023-02-19T20:57:23.326Z,61.23
2023-02-19T20:59:51.238Z,61.58
2023-02-19T21:02:19.928Z,61.54
2023-02-19T21:04:47.684Z,61.62
2023-02-19T21:07:16.191Z,61.93
2023-02-19T21:09:43.104Z,61.91
2023-02-19T21:12:10.485Z,61.63
2023-02-19T21:14:38.557Z,61.72
2023-02-19T21:17:07.649Z,61.76
2023-02-19T21:19:39.497Z,61.73
2023-02-19T21:22:06.309Z,62.20
2023-02-19T21:24:32.849Z,62.24
2023-02-19T21:26:59.524Z,62.38
2023-02-19T21:29:26.590Z,62.43
2023-02-19T21:31:56.645Z,62.65
2023-02-19T21:34:27.838Z,62.97
2023-02-19T21:36:57.246Z,63.33
2023-02-19T21:39:24.687Z,63.55
2023-02-19T21:41:51.323Z,63.85
2023-02-19T21:44:18.505Z,64.00
2023-02-19T21:46:50.308Z,64.14
2023-02-19T21:49:17.318Z,64.54
2023-02-19T21:51:51.775Z,64.46
2023-02-19T21:54:21.025Z,64.80
2023-02-19T21:56:48.113Z,65.05
2023-02-19T21:59:14.855Z,65.39
2023-02-19T22:01:42.857Z,65.28
2023-02-19T22:04:13.484Z,65.65
2023-02-19T22:06:40.019Z,65.47
2023-02-19T22:09:10.101Z,65.58
2023-02-19T22:11:37.666Z,65.74
2023-02-19T22:14:04.311Z,65.86
2023-02-19T22:16:34.195Z,66.16
2023-02-19T22:19:01.305Z,66.14
2023-02-19T22:21:34.282Z,65.90
2023-02-19T22:24:05.261Z,65.73
2023-02-19T22:26:35.789Z,65.66
2023-02-19T22:29:24.440Z,65.93
2023-02-19T22:31:52.143Z,65.74
2023-02-19T22:34:21.370Z,65.35
2023-02-19T22:36:50.059Z,65.49
2023-02-19T22:39:36.377Z,65.59
2023-02-19T22:42:08.060Z,65.28
2023-02-19T22:44:36.188Z,65.20
2023-02-19T22:47:02.965Z,65.31
2023-02-19T22:49:34.852Z,65.41
2023-02-19T22:52:03.149Z,65.24
2023-02-19T22:54:34.748Z,65.35
2023-02-19T22:57:01.573Z,65.35
2023-02-19T22:59:30.707Z,65.18
2023-02-19T23:01:59.879Z,65.36
2023-02-19T23:04:32.627Z,65.24
2023-02-19T23:07:05.471Z,65.01
2023-02-19T23:09:31.927Z,65.18
2023-02-19T23:12:06.508Z,65.27
2023-02-19T23:14:43.433Z,65.10
2023-02-19T23:17:10.184Z,65.29
2023-02-19T23:19:48.453Z,65.29
2023-02-19T23:22:15.253Z,65.28
2023-02-19T23:24:41.828Z,65.02
2023-02-19T23:27:08.868Z,65.14
2023-02-19T23:29:37.426Z,65.14
2023-02-19T23:32:04.631Z,64.98
2023-02-19T23:34:34.350Z,64.98
2023-02-19T23:37:01.717Z,64.79
2023-02-19T23:39:28.477Z,64.91
2023-02-19T23:42:01.499Z,64.95
2023-02-19T23:44:32.368Z,64.90
2023-02-19T23:46:59.013Z,64.90
2023-02-19T23:49:28.128Z,65.08
2023-02-19T23:51:54.798Z,65.03
2023-02-19T23:54:23.402Z,64.85
2023-02-19T23:56:52.403Z,64.77
2023-02-19T23:59:18.953Z,65.14
